createdAt,value
2023-01-23T00:00:47.292Z,15.77
2023-01-23T00:03:13.642Z,15.15
2023-01-23T00:05:39.978Z,15.43
2023-01-23T00:08:06.288Z,18.17
2023-01-23T00:10:32.607Z,17.33
2023-01-23T00:12:58.997Z,23.45
2023-01-23T00:15:25.405Z,22.55
2023-01-23T00:17:52.106Z,19.40
2023-01-23T00:20:18.852Z,19.80
2023-01-23T00:22:45.374Z,19.17
2023-01-23T00:25:11.686Z,19.05
2023-01-23T00:27:38.105Z,20.60
2023-01-23T00:30:05.187Z,19.35
2023-01-23T00:32:31.587Z,16.95
2023-01-23T00:34:57.903Z,16.63
2023-01-23T00:37:24.201Z,16.55
2023-01-23T00:39:50.862Z,17.77
2023-01-23T00:42:17.700Z,21.42
2023-01-23T00:44:44.021Z,18.15
2023-01-23T00:47:10.421Z,19.63
2023-01-23T00:49:36.793Z,18.23
2023-01-23T00:52:04.775Z,18.33
2023-01-23T00:54:31.132Z,16.33
2023-01-23T00:56:57.797Z,18.95
2023-01-23T00:59:24.296Z,15.60
2023-01-23T01:01:50.893Z,16.23
2023-01-23T01:04:17.241Z,17.40
2023-01-23T01:06:43.593Z,16.33
2023-01-23T01:09:09.877Z,18.48
2023-01-23T01:11:37.437Z,16.67
2023-01-23T01:14:04.527Z,19.33
2023-01-23T01:16:31.049Z,17.13
2023-01-23T01:18:58.437Z,17.70
2023-01-23T01:21:24.860Z,16.65
2023-01-23T01:23:51.231Z,18.27
2023-01-23T01:26:18.303Z,17.80
2023-01-23T01:28:44.664Z,19.00
2023-01-23T01:31:13.831Z,19.08
2023-01-23T01:33:41.653Z,16.08
2023-01-23T01:36:10.484Z,18.15
2023-01-23T01:38:36.941Z,16.95
2023-01-23T01:41:06.436Z,16.98
2023-01-23T01:43:34.321Z,19.10
2023-01-23T01:46:10.273Z,19.35
2023-01-23T01:48:42.486Z,16.75
2023-01-23T01:51:32.539Z,18.20
2023-01-23T01:54:16.780Z,19.70
2023-01-23T01:56:58.225Z,17.75
2023-01-23T01:59:27.029Z,17.48
2023-01-23T02:01:58.221Z,18.55
2023-01-23T02:06:52.637Z,19.60
2023-01-23T02:09:25.801Z,21.20
2023-01-23T02:11:52.793Z,22.95
2023-01-23T02:14:20.387Z,21.42
2023-01-23T02:16:51.868Z,18.38
2023-01-23T02:19:45.125Z,20.75
2023-01-23T02:22:45.409Z,22.00
2023-01-23T02:25:40.010Z,16.70
2023-01-23T02:28:07.088Z,23.27
2023-01-23T02:30:39.871Z,19.85
2023-01-23T02:33:12.208Z,23.10
2023-01-23T02:35:39.075Z,22.15
2023-01-23T02:38:09.346Z,20.98
2023-01-23T02:40:39.828Z,22.77
2023-01-23T02:43:15.639Z,23.08
2023-01-23T02:45:48.628Z,28.55
2023-01-23T02:48:15.763Z,28.65
2023-01-23T02:50:46.316Z,23.85
2023-01-23T02:53:13.362Z,20.42
2023-01-23T02:55:43.145Z,23.42
2023-01-23T02:58:28.825Z,21.05
2023-01-23T03:00:55.379Z,24.63
2023-01-23T03:03:22.759Z,23.58
2023-01-23T03:05:50.110Z,21.58
2023-01-23T03:08:16.958Z,20.05
2023-01-23T03:10:43.834Z,20.55
2023-01-23T03:13:11.967Z,26.65
2023-01-23T03:15:39.116Z,21.63
2023-01-23T03:18:05.532Z,19.10
2023-01-23T03:20:39.233Z,17.95
2023-01-23T03:23:05.632Z,20.67
2023-01-23T03:25:32.084Z,19.70
2023-01-23T03:27:58.559Z,19.17
2023-01-23T03:30:25.657Z,20.23
2023-01-23T03:32:52.979Z,20.92
2023-01-23T03:35:20.292Z,17.83
2023-01-23T03:37:49.496Z,21.50
2023-01-23T03:40:40.437Z,20.08
2023-01-23T03:43:07.136Z,19.13
2023-01-23T03:45:35.669Z,17.83
2023-01-23T03:48:02.385Z,19.80
2023-01-23T03:50:30.013Z,20.02
2023-01-23T03:52:57.047Z,21.00
2023-01-23T03:55:23.434Z,18.80
2023-01-23T03:57:49.835Z,21.10
2023-01-23T04:00:17.870Z,21.35
2023-01-23T04:02:50.674Z,20.80
2023-01-23T04:05:17.467Z,21.73
2023-01-23T04:07:43.771Z,18.55
2023-01-23T04:10:12.932Z,21.13
2023-01-23T04:12:42.812Z,20.83
2023-01-23T04:15:10.533Z,24.42
2023-01-23T04:17:36.963Z,20.30
2023-01-23T04:20:03.997Z,18.52
2023-01-23T04:22:30.996Z,19.30
2023-01-23T04:24:57.322Z,20.95
2023-01-23T04:27:23.880Z,22.88
2023-01-23T04:29:52.236Z,18.42
2023-01-23T04:32:18.613Z,20.65
2023-01-23T04:34:46.740Z,21.67
2023-01-23T04:37:14.157Z,20.17
2023-01-23T04:39:40.633Z,18.80
2023-01-23T04:42:07.453Z,20.08
2023-01-23T04:44:52.131Z,17.73
2023-01-23T04:47:30.277Z,20.10
2023-01-23T04:49:57.791Z,22.05
2023-01-23T04:52:24.092Z,20.83
2023-01-23T04:54:56.812Z,19.58
2023-01-23T04:57:23.529Z,19.83
2023-01-23T04:59:56.228Z,22.52
2023-01-23T05:02:22.961Z,18.95
2023-01-23T05:04:49.520Z,21.63
2023-01-23T05:07:15.856Z,19.17
2023-01-23T05:09:54.187Z,18.88
2023-01-23T05:12:21.652Z,20.73
2023-01-23T05:14:47.953Z,17.67
2023-01-23T05:17:14.277Z,17.38
2023-01-23T05:19:46.009Z,17.00
2023-01-23T05:22:12.639Z,19.88
2023-01-23T05:24:39.001Z,16.42
2023-01-23T05:27:05.524Z,17.75
2023-01-23T05:29:36.109Z,17.77
2023-01-23T05:32:09.382Z,21.00
2023-01-23T05:34:38.381Z,20.83
2023-01-23T05:37:14.900Z,17.25
2023-01-23T05:39:45.275Z,20.48
2023-01-23T05:42:11.596Z,18.38
2023-01-23T05:44:49.728Z,22.20
2023-01-23T05:47:29.909Z,21.42
2023-01-23T05:49:57.274Z,19.73
2023-01-23T05:52:28.215Z,14.52
2023-01-23T05:54:54.884Z,20.30
2023-01-23T05:57:22.270Z,17.95
2023-01-23T06:00:08.440Z,19.00
2023-01-23T06:02:53.208Z,18.40
2023-01-23T06:05:45.713Z,20.67
2023-01-23T06:08:17.274Z,18.33
2023-01-23T06:10:43.736Z,15.40
2023-01-23T06:13:10.892Z,17.75
2023-01-23T06:15:39.952Z,14.82
2023-01-23T06:18:10.340Z,18.75
2023-01-23T06:20:36.685Z,15.50
2023-01-23T06:23:03.554Z,19.13
2023-01-23T06:25:32.061Z,18.02
2023-01-23T06:28:01.127Z,18.65
2023-01-23T06:30:30.403Z,15.75
2023-01-23T06:32:56.946Z,16.42
2023-01-23T06:35:31.538Z,13.82
2023-01-23T06:37:57.956Z,15.68
2023-01-23T06:40:25.100Z,17.90
2023-01-23T06:43:14.189Z,17.38
2023-01-23T06:45:45.134Z,17.27
2023-01-23T06:48:12.080Z,19.27
2023-01-23T06:50:41.325Z,20.23
2023-01-23T06:53:09.333Z,19.42
2023-01-23T06:55:36.978Z,16.85
2023-01-23T06:58:04.342Z,14.07
2023-01-23T07:00:31.080Z,15.27
2023-01-23T07:03:03.516Z,15.90
2023-01-23T07:05:30.906Z,17.13
2023-01-23T07:07:57.475Z,16.50
2023-01-23T07:10:24.200Z,19.25
2023-01-23T07:12:50.971Z,19.13
2023-01-23T07:15:17.424Z,15.38
2023-01-23T07:17:43.968Z,19.35
2023-01-23T07:20:11.068Z,18.90
2023-01-23T07:22:43.413Z,20.52
2023-01-23T07:25:10.100Z,24.73
2023-01-23T07:27:36.518Z,18.77
2023-01-23T07:30:03.146Z,17.08
2023-01-23T07:32:29.444Z,20.70
2023-01-23T07:34:55.835Z,23.13
2023-01-23T07:37:22.159Z,25.95
2023-01-23T07:39:49.906Z,18.95
2023-01-23T07:42:16.398Z,17.70
2023-01-23T07:44:42.720Z,17.23
2023-01-23T07:47:09.660Z,17.55
2023-01-23T07:49:35.963Z,14.98
2023-01-23T07:52:02.521Z,16.92
2023-01-23T07:54:28.844Z,20.98
2023-01-23T07:56:55.967Z,17.17
2023-01-23T07:59:22.255Z,19.05
2023-01-23T08:01:50.763Z,16.98
2023-01-23T08:04:17.114Z,18.48
2023-01-23T08:06:43.642Z,18.45
2023-01-23T08:09:10.020Z,23.02
2023-01-23T08:11:36.434Z,23.23
2023-01-23T08:14:02.835Z,20.55
2023-01-23T08:16:29.276Z,33.50
2023-01-23T08:18:55.721Z,30.33
2023-01-23T08:21:22.274Z,25.15
2023-01-23T08:23:48.597Z,27.92
2023-01-23T08:26:17.037Z,28.17
2023-01-23T08:28:45.458Z,32.13
2023-01-23T08:31:13.286Z,31.85
2023-01-23T08:33:39.854Z,33.67
2023-01-23T08:36:10.161Z,33.22
2023-01-23T08:41:03.909Z,22.42
2023-01-23T08:43:30.541Z,25.00
2023-01-23T08:45:58.386Z,19.52
2023-01-23T08:48:25.949Z,20.42
2023-01-23T08:50:59.513Z,17.10
2023-01-23T08:53:26.019Z,29.35
2023-01-23T08:55:52.414Z,19.65
2023-01-23T08:58:18.728Z,16.23
2023-01-23T09:00:45.057Z,15.50
2023-01-23T09:03:11.645Z,16.20
2023-01-23T09:05:38.151Z,18.20
2023-01-23T09:08:04.960Z,15.27
2023-01-23T09:10:31.308Z,21.30
2023-01-23T09:12:57.831Z,16.30
2023-01-23T09:15:24.261Z,14.23
2023-01-23T09:17:50.694Z,16.38
2023-01-23T09:20:17.789Z,14.23
2023-01-23T09:22:44.844Z,11.90
2023-01-23T09:25:12.166Z,14.95
2023-01-23T09:27:38.448Z,12.32
2023-01-23T09:30:05.225Z,11.98
2023-01-23T09:32:31.561Z,14.27
2023-01-23T09:34:57.889Z,12.73
2023-01-23T09:37:25.260Z,13.32
2023-01-23T09:39:51.581Z,14.85
2023-01-23T09:42:26.116Z,14.18
2023-01-23T09:44:57.305Z,23.48
2023-01-23T09:50:00.325Z,31.43
2023-01-23T09:52:34.185Z,28.95
2023-01-23T09:55:17.555Z,25.63
2023-01-23T09:57:55.966Z,25.52
2023-01-23T10:00:25.251Z,29.75
2023-01-23T10:02:53.363Z,40.88
2023-01-23T10:05:26.509Z,24.02
2023-01-23T10:08:32.878Z,20.25
2023-01-23T10:11:10.763Z,29.42
2023-01-23T10:13:55.406Z,28.20
2023-01-23T10:16:50.046Z,41.10
2023-01-23T10:19:42.075Z,24.25
2023-01-23T10:24:53.162Z,16.00
2023-01-23T10:27:20.979Z,17.45
2023-01-23T10:29:52.634Z,15.57
2023-01-23T10:32:30.462Z,16.85
2023-01-23T10:35:03.742Z,14.30
2023-01-23T10:37:42.973Z,13.48
2023-01-23T10:40:42.758Z,16.35
2023-01-23T10:43:20.294Z,19.65
2023-01-23T10:45:48.014Z,21.25
2023-01-23T10:48:32.859Z,14.95
2023-01-23T10:51:00.156Z,18.95
2023-01-23T10:53:27.023Z,54.05
2023-01-23T10:55:57.897Z,21.50
2023-01-23T10:58:38.319Z,14.77
2023-01-23T11:01:07.087Z,15.30
2023-01-23T11:03:35.660Z,16.27
2023-01-23T11:06:03.919Z,16.52
2023-01-23T11:08:38.842Z,16.85
2023-01-23T11:11:22.676Z,18.98
2023-01-23T11:14:04.502Z,17.15
2023-01-23T11:16:30.991Z,16.27
2023-01-23T11:19:08.348Z,17.80
2023-01-23T11:21:37.924Z,17.27
2023-01-23T11:24:39.813Z,19.63
2023-01-23T11:27:19.115Z,17.63
2023-01-23T11:29:53.959Z,19.55
2023-01-23T11:32:21.559Z,13.65
2023-01-23T11:34:51.407Z,22.67
2023-01-23T11:37:37.282Z,25.40
2023-01-23T11:40:12.964Z,24.65
2023-01-23T11:42:41.798Z,21.08
2023-01-23T11:45:46.415Z,18.52
2023-01-23T11:48:18.824Z,16.00
2023-01-23T11:50:55.894Z,17.80
2023-01-23T11:53:42.443Z,17.50
2023-01-23T11:56:21.204Z,16.63
2023-01-23T11:59:05.829Z,19.85
2023-01-23T12:02:05.909Z,20.40
2023-01-23T12:07:24.833Z,18.58
2023-01-23T12:10:03.492Z,21.98
2023-01-23T12:13:02.172Z,21.13
2023-01-23T12:15:43.516Z,19.63
2023-01-23T12:18:27.495Z,21.67
2023-01-23T12:21:09.582Z,23.95
2023-01-23T12:24:04.473Z,22.95
2023-01-23T12:26:31.495Z,22.58
2023-01-23T12:29:03.729Z,32.15
2023-01-23T12:31:33.422Z,29.25
2023-01-23T12:34:13.001Z,26.73
2023-01-23T12:37:10.013Z,26.80
2023-01-23T12:39:59.986Z,22.42
2023-01-23T12:42:31.694Z,21.85
2023-01-23T12:45:06.193Z,21.35
2023-01-23T12:47:44.417Z,17.98
2023-01-23T12:50:27.085Z,22.02
2023-01-23T12:53:00.381Z,22.52
2023-01-23T12:55:35.901Z,20.80
2023-01-23T12:58:10.079Z,20.38
2023-01-23T13:00:57.954Z,23.00
2023-01-23T13:03:51.260Z,17.23
2023-01-23T13:06:42.737Z,22.27
2023-01-23T13:12:25.042Z,46.80
2023-01-23T13:15:13.484Z,38.20
2023-01-23T13:17:51.487Z,20.27
2023-01-23T13:20:39.987Z,19.70
2023-01-23T13:23:23.498Z,28.73
2023-01-23T13:25:50.797Z,23.73
2023-01-23T13:28:44.431Z,27.17
2023-01-23T13:31:44.931Z,21.27
2023-01-23T13:34:17.659Z,31.30
2023-01-23T13:36:51.584Z,27.85
2023-01-23T13:39:17.965Z,27.23
2023-01-23T13:41:52.555Z,30.40
2023-01-23T13:44:40.354Z,28.17
2023-01-23T14:22:13.132Z,28.40
2023-01-23T14:24:44.691Z,25.17
2023-01-23T14:27:51.281Z,26.10
2023-01-23T14:30:24.551Z,26.90
2023-01-23T14:32:51.034Z,24.33
2023-01-23T14:35:32.409Z,26.17
2023-01-23T14:40:37.273Z,77.70
2023-01-23T14:43:08.498Z,55.03
2023-01-23T14:45:36.388Z,63.83
2023-01-23T14:48:06.722Z,50.97
2023-01-23T14:50:33.876Z,34.53
2023-01-23T14:53:05.088Z,38.40
2023-01-23T14:58:03.685Z,28.95
2023-01-23T15:00:31.081Z,21.20
2023-01-23T15:02:57.459Z,24.75
2023-01-23T15:05:29.271Z,23.52
2023-01-23T15:08:06.031Z,25.50
2023-01-23T15:10:43.995Z,27.15
2023-01-23T15:13:26.493Z,25.92
2023-01-23T15:15:59.645Z,29.63
2023-01-23T15:18:28.645Z,26.73
2023-01-23T15:20:57.831Z,36.30
2023-01-23T15:23:30.972Z,34.40
2023-01-23T15:26:24.413Z,33.75
2023-01-23T15:28:56.622Z,32.17
2023-01-23T15:31:43.233Z,29.55
2023-01-23T15:34:15.631Z,31.85
2023-01-23T15:36:48.218Z,31.38
2023-01-23T15:39:27.257Z,28.23
2023-01-23T15:41:59.883Z,24.83
2023-01-23T15:44:29.254Z,25.70
2023-01-23T15:46:56.924Z,23.00
2023-01-23T15:49:26.266Z,22.80
2023-01-23T15:51:55.568Z,21.15
2023-01-23T15:54:26.589Z,21.20
2023-01-23T15:57:05.565Z,29.98
2023-01-23T15:59:33.902Z,25.45
2023-01-23T16:02:00.217Z,24.95
2023-01-23T16:04:26.538Z,27.70
2023-01-23T16:06:52.960Z,26.63
2023-01-23T16:09:33.375Z,25.52
2023-01-23T16:12:00.800Z,22.40
2023-01-23T16:14:27.202Z,22.13
2023-01-23T16:16:54.420Z,22.30
2023-01-23T16:19:21.016Z,22.25
2023-01-23T16:21:59.228Z,19.60
2023-01-23T16:24:36.448Z,23.73
2023-01-23T16:27:03.653Z,22.40
2023-01-23T16:29:32.726Z,24.02
2023-01-23T16:32:01.102Z,24.73
2023-01-23T16:34:27.596Z,22.13
2023-01-23T16:36:57.655Z,19.67
2023-01-23T16:39:26.983Z,20.47
2023-01-23T16:41:56.245Z,23.77
2023-01-23T16:44:26.452Z,22.95
2023-01-23T16:46:53.793Z,17.67
2023-01-23T16:49:20.888Z,19.17
2023-01-23T16:51:59.392Z,22.13
2023-01-23T16:54:26.266Z,21.13
2023-01-23T16:56:54.380Z,16.65
2023-01-23T16:59:34.650Z,14.80
2023-01-23T17:02:06.292Z,17.50
2023-01-23T17:04:32.657Z,17.60
2023-01-23T17:06:59.067Z,15.00
2023-01-23T17:09:25.427Z,39.75
2023-01-23T17:11:55.546Z,27.40
2023-01-23T17:14:30.684Z,19.40
2023-01-23T17:17:03.397Z,21.38
2023-01-23T17:19:33.437Z,22.50
2023-01-23T17:22:01.498Z,17.88
2023-01-23T17:24:28.373Z,16.67
2023-01-23T17:26:54.719Z,18.52
2023-01-23T17:29:21.473Z,21.63
2023-01-23T17:31:48.795Z,23.70
2023-01-23T17:34:24.073Z,23.38
2023-01-23T17:36:52.689Z,21.20
2023-01-23T17:39:20.527Z,20.48
2023-01-23T17:41:46.925Z,25.73
2023-01-23T17:44:13.255Z,19.80
2023-01-23T17:46:39.710Z,18.48
2023-01-23T17:49:35.229Z,21.20
2023-01-23T17:52:01.750Z,18.17
2023-01-23T17:54:28.601Z,22.15
2023-01-23T17:56:55.010Z,22.08
2023-01-23T17:59:21.467Z,19.58
2023-01-23T18:01:47.922Z,16.95
2023-01-23T18:04:17.211Z,21.85
2023-01-23T18:06:44.009Z,22.98
2023-01-23T18:09:10.553Z,23.65
2023-01-23T18:11:39.110Z,20.33
2023-01-23T18:14:23.447Z,25.88
2023-01-23T18:16:50.171Z,30.00
2023-01-23T18:19:17.844Z,25.63
2023-01-23T18:21:49.707Z,18.13
2023-01-23T18:24:24.164Z,19.17
2023-01-23T18:26:55.809Z,17.63
2023-01-23T18:29:33.730Z,20.35
2023-01-23T18:32:09.239Z,17.55
2023-01-23T18:34:58.839Z,19.33
2023-01-23T18:37:29.229Z,21.20
2023-01-23T18:40:36.189Z,21.08
2023-01-23T18:43:33.302Z,18.42
2023-01-23T18:45:59.859Z,22.98
2023-01-23T18:48:26.593Z,24.27
2023-01-23T18:51:06.000Z,24.58
2023-01-23T18:53:57.118Z,23.23
2023-01-23T18:57:01.016Z,20.10
2023-01-23T18:59:44.186Z,22.27
2023-01-23T19:02:35.757Z,24.42
2023-01-23T19:05:21.637Z,34.47
2023-01-23T19:07:49.073Z,24.85
2023-01-23T19:10:24.507Z,20.63
2023-01-23T19:12:53.872Z,21.10
2023-01-23T19:15:30.828Z,25.95
2023-01-23T19:18:06.321Z,21.25
2023-01-23T19:20:36.911Z,20.95
2023-01-23T19:23:35.490Z,23.65
2023-01-23T19:26:02.095Z,24.67
2023-01-23T19:28:28.648Z,23.90
2023-01-23T19:30:55.367Z,21.73
2023-01-23T19:33:22.028Z,18.23
2023-01-23T19:35:49.131Z,21.42
2023-01-23T19:38:15.439Z,19.92
2023-01-23T19:40:42.889Z,19.60
2023-01-23T19:43:16.778Z,23.25
2023-01-23T19:45:44.289Z,20.90
2023-01-23T19:48:10.922Z,27.67
2023-01-23T19:50:37.703Z,21.40
2023-01-23T19:53:04.278Z,25.30
2023-01-23T19:55:34.208Z,17.25
2023-01-23T19:58:00.737Z,18.25
2023-01-23T20:00:29.516Z,19.75
2023-01-23T20:02:55.997Z,20.13
2023-01-23T20:05:23.500Z,17.88
2023-01-23T20:07:50.561Z,16.80
2023-01-23T20:10:17.587Z,19.13
2023-01-23T20:12:46.494Z,16.08
2023-01-23T20:15:14.427Z,18.70
2023-01-23T20:17:41.382Z,21.92
2023-01-23T20:20:09.808Z,22.20
2023-01-23T20:22:36.206Z,23.10
2023-01-23T20:25:02.591Z,17.23
2023-01-23T20:27:28.915Z,21.13
2023-01-23T20:29:55.248Z,17.10
2023-01-23T20:32:21.677Z,16.15
2023-01-23T20:34:48.008Z,20.27
2023-01-23T20:37:14.390Z,17.67
2023-01-23T20:39:40.726Z,20.15
2023-01-23T20:42:08.834Z,15.60
2023-01-23T20:44:35.751Z,18.45
2023-01-23T20:47:02.081Z,16.65
2023-01-23T20:49:28.841Z,20.05
2023-01-23T20:52:15.246Z,20.38
2023-01-23T20:54:41.600Z,21.73
2023-01-23T20:57:07.904Z,37.60
2023-01-23T20:59:34.259Z,25.85
2023-01-23T21:02:19.068Z,17.98
2023-01-23T21:04:45.399Z,20.27
2023-01-23T21:07:11.749Z,23.10
2023-01-23T21:09:38.085Z,38.55
2023-01-23T21:12:04.640Z,23.80
2023-01-23T21:14:31.066Z,20.13
2023-01-23T21:16:58.249Z,20.50
2023-01-23T21:19:24.618Z,19.20
2023-01-23T21:21:51.014Z,21.05
2023-01-23T21:24:17.431Z,22.60
2023-01-23T21:26:43.960Z,21.02
2023-01-23T21:29:10.932Z,23.60
2023-01-23T21:31:39.266Z,24.48
2023-01-23T21:34:08.732Z,33.67
2023-01-23T21:36:35.727Z,29.55
2023-01-23T21:39:02.320Z,28.35
2023-01-23T21:41:28.682Z,28.23
2023-01-23T21:43:55.048Z,23.35
2023-01-23T21:46:21.479Z,21.98
2023-01-23T21:48:47.842Z,20.45
2023-01-23T21:51:21.913Z,19.13
2023-01-23T21:53:49.969Z,26.20
2023-01-23T21:56:19.467Z,24.50
2023-01-23T21:58:47.014Z,17.80
2023-01-23T22:01:42.075Z,15.65
2023-01-23T22:04:11.374Z,20.30
2023-01-23T22:06:39.796Z,19.15
2023-01-23T22:09:07.150Z,18.40
2023-01-23T22:11:33.545Z,23.30
2023-01-23T22:13:59.967Z,18.48
2023-01-23T22:16:46.453Z,18.40
2023-01-23T22:19:18.431Z,18.15
2023-01-23T22:21:46.180Z,22.08
2023-01-23T22:24:12.720Z,18.77
2023-01-23T22:26:39.097Z,18.40
2023-01-23T22:29:05.396Z,16.25
2023-01-23T22:31:31.825Z,19.20
2023-01-23T22:33:58.332Z,20.08
2023-01-23T22:36:24.788Z,19.55
2023-01-23T22:38:53.209Z,18.42
2023-01-23T22:41:20.176Z,19.58
2023-01-23T22:43:46.633Z,19.95
2023-01-23T22:46:16.368Z,16.30
2023-01-23T22:48:42.845Z,16.27
2023-01-23T22:51:19.158Z,20.85
2023-01-23T22:53:45.522Z,22.60
2023-01-23T22:56:12.755Z,22.92
2023-01-23T22:58:39.468Z,15.63
2023-01-23T23:01:06.693Z,16.77
2023-01-23T23:03:34.491Z,16.13
2023-01-23T23:06:04.135Z,17.15
2023-01-23T23:08:30.749Z,14.70
2023-01-23T23:11:04.505Z,14.20
2023-01-23T23:13:33.133Z,15.77
2023-01-23T23:16:08.869Z,16.17
2023-01-23T23:18:38.195Z,16.40
2023-01-23T23:21:08.275Z,14.90
2023-01-23T23:23:35.074Z,22.38
2023-01-23T23:26:02.073Z,15.20
2023-01-23T23:28:28.697Z,17.30
2023-01-23T23:30:54.985Z,16.55
2023-01-23T23:33:21.585Z,15.00
2023-01-23T23:35:48.080Z,17.45
2023-01-23T23:38:14.911Z,13.70
2023-01-23T23:40:41.661Z,26.67
2023-01-23T23:43:09.213Z,22.40
2023-01-23T23:45:35.587Z,21.38
2023-01-23T23:48:02.251Z,13.50
2023-01-23T23:50:29.292Z,14.07
2023-01-23T23:52:55.645Z,19.08
2023-01-23T23:55:22.393Z,19.65
2023-01-23T23:57:49.024Z,22.98
